createdAt,value
2023-01-23T00:01:10.021Z,16.50
2023-01-23T00:03:38.004Z,15.57
2023-01-23T00:06:08.501Z,14.45
2023-01-23T00:08:37.590Z,15.57
2023-01-23T00:11:06.999Z,16.85
2023-01-23T00:13:36.525Z,18.13
2023-01-23T00:16:06.357Z,15.13
2023-01-23T00:18:34.337Z,16.65
2023-01-23T00:21:05.203Z,15.25
2023-01-23T00:23:32.962Z,13.93
2023-01-23T00:26:04.785Z,14.85
2023-01-23T00:28:32.552Z,14.32
2023-01-23T00:31:09.945Z,13.50
2023-01-23T00:33:37.620Z,14.63
2023-01-23T00:36:05.910Z,14.18
2023-01-23T00:38:33.680Z,13.70
2023-01-23T00:41:02.301Z,13.90
2023-01-23T00:43:31.030Z,13.70
2023-01-23T00:45:59.415Z,14.48
2023-01-23T00:48:28.480Z,15.00
2023-01-23T00:50:56.183Z,14.85
2023-01-23T00:53:23.958Z,13.82
2023-01-23T00:55:51.765Z,14.52
2023-01-23T00:58:19.526Z,14.52
2023-01-23T01:00:47.177Z,12.98
2023-01-23T01:03:14.909Z,14.60
2023-01-23T01:05:47.287Z,13.07
2023-01-23T01:08:14.948Z,12.90
2023-01-23T01:10:43.179Z,14.15
2023-01-23T01:13:12.038Z,13.10
2023-01-23T01:15:39.785Z,12.55
2023-01-23T01:18:07.488Z,12.63
2023-01-23T01:20:35.124Z,12.25
2023-01-23T01:23:04.365Z,13.07
2023-01-23T01:25:32.117Z,14.30
2023-01-23T01:27:59.787Z,14.98
2023-01-23T01:30:28.040Z,14.60
2023-01-23T01:32:56.731Z,14.55
2023-01-23T01:35:25.451Z,14.32
2023-01-23T01:37:53.122Z,14.15
2023-01-23T01:40:24.322Z,13.10
2023-01-23T01:42:56.176Z,12.82
2023-01-23T01:46:05.326Z,14.48
2023-01-23T01:48:36.809Z,13.85
2023-01-23T01:51:09.908Z,12.55
2023-01-23T01:53:39.540Z,12.75
2023-01-23T01:56:13.457Z,13.52
2023-01-23T01:58:43.312Z,14.85
2023-01-23T02:01:11.438Z,12.15
2023-01-23T02:03:40.215Z,13.70
2023-01-23T02:06:08.824Z,13.25
2023-01-23T02:08:43.978Z,12.45
2023-01-23T02:11:15.114Z,13.80
2023-01-23T02:13:43.066Z,13.45
2023-01-23T02:16:13.529Z,12.80
2023-01-23T02:18:47.259Z,13.48
2023-01-23T02:21:18.176Z,12.20
2023-01-23T02:23:58.436Z,13.02
2023-01-23T02:26:32.877Z,13.43
2023-01-23T02:29:00.885Z,12.90
2023-01-23T02:31:28.740Z,14.27
2023-01-23T02:33:58.598Z,16.48
2023-01-23T02:36:28.212Z,14.23
2023-01-23T02:39:04.646Z,14.63
2023-01-23T02:41:36.659Z,14.10
2023-01-23T02:44:08.274Z,11.90
2023-01-23T02:46:36.011Z,12.52
2023-01-23T02:49:03.685Z,12.35
2023-01-23T02:51:32.538Z,13.73
2023-01-23T02:54:00.485Z,12.57
2023-01-23T02:56:28.152Z,13.35
2023-01-23T02:59:14.519Z,12.93
2023-01-23T03:01:42.460Z,13.52
2023-01-23T03:04:10.166Z,15.98
2023-01-23T03:06:38.458Z,13.45
2023-01-23T03:09:09.068Z,12.90
2023-01-23T03:11:39.035Z,13.30
2023-01-23T03:14:10.199Z,13.57
2023-01-23T03:16:38.633Z,14.70
2023-01-23T03:19:09.092Z,13.77
2023-01-23T03:21:40.298Z,14.65
2023-01-23T03:24:09.627Z,14.70
2023-01-23T03:26:40.145Z,13.65
2023-01-23T03:29:31.325Z,14.27
2023-01-23T03:31:58.998Z,14.55
2023-01-23T03:34:26.671Z,15.38
2023-01-23T03:36:54.413Z,15.10
2023-01-23T03:39:40.058Z,16.08
2023-01-23T03:42:07.806Z,16.42
2023-01-23T03:44:37.038Z,16.75
2023-01-23T03:47:05.130Z,14.98
2023-01-23T03:49:33.196Z,16.60
2023-01-23T03:52:01.945Z,13.85
2023-01-23T03:54:29.628Z,16.17
2023-01-23T03:56:57.470Z,14.52
2023-01-23T03:59:25.087Z,13.35
2023-01-23T04:01:54.172Z,14.52
2023-01-23T04:04:21.836Z,14.20
2023-01-23T04:06:49.477Z,14.63
2023-01-23T04:09:17.150Z,13.85
2023-01-23T04:11:44.894Z,13.15
2023-01-23T04:14:12.596Z,13.98
2023-01-23T04:16:40.261Z,14.65
2023-01-23T04:19:09.311Z,15.88
2023-01-23T04:21:37.023Z,15.40
2023-01-23T04:24:04.827Z,14.02
2023-01-23T04:26:34.330Z,15.93
2023-01-23T04:29:01.970Z,15.38
2023-01-23T04:31:29.739Z,15.18
2023-01-23T04:33:57.561Z,15.00
2023-01-23T04:36:26.637Z,15.18
2023-01-23T04:38:54.301Z,15.73
2023-01-23T04:41:24.819Z,13.48
2023-01-23T04:43:52.788Z,15.38
2023-01-23T04:46:20.652Z,15.23
2023-01-23T04:48:48.973Z,14.80
2023-01-23T04:51:16.876Z,14.07
2023-01-23T04:53:46.030Z,16.92
2023-01-23T04:56:13.752Z,16.05
2023-01-23T04:58:41.454Z,15.52
2023-01-23T05:01:09.421Z,15.77
2023-01-23T05:03:37.351Z,16.30
2023-01-23T05:06:05.363Z,15.30
2023-01-23T05:08:33.111Z,15.13
2023-01-23T05:11:02.154Z,15.25
2023-01-23T05:13:29.789Z,15.93
2023-01-23T05:15:58.414Z,14.50
2023-01-23T05:18:26.243Z,15.05
2023-01-23T05:20:53.917Z,16.83
2023-01-23T05:23:21.637Z,15.05
2023-01-23T05:25:49.351Z,15.02
2023-01-23T05:28:18.588Z,14.80
2023-01-23T05:30:46.612Z,15.32
2023-01-23T05:33:14.343Z,15.32
2023-01-23T05:35:42.219Z,16.85
2023-01-23T05:38:11.318Z,15.38
2023-01-23T05:40:39.161Z,15.60
2023-01-23T05:43:07.057Z,15.05
2023-01-23T05:45:36.115Z,13.82
2023-01-23T05:48:03.776Z,14.85
2023-01-23T05:50:33.716Z,14.10
2023-01-23T05:53:02.196Z,14.88
2023-01-23T05:55:29.930Z,15.73
2023-01-23T05:57:57.663Z,15.70
2023-01-23T06:00:25.552Z,16.10
2023-01-23T06:02:54.611Z,16.50
2023-01-23T06:05:23.379Z,16.10
2023-01-23T06:07:51.034Z,16.08
2023-01-23T06:10:19.245Z,16.02
2023-01-23T06:12:47.103Z,16.38
2023-01-23T06:15:14.758Z,17.08
2023-01-23T06:17:42.465Z,15.95
2023-01-23T06:20:13.062Z,15.80
2023-01-23T06:22:41.149Z,17.13
2023-01-23T06:25:09.496Z,15.35
2023-01-23T06:27:37.138Z,15.50
2023-01-23T06:30:05.500Z,18.60
2023-01-23T06:32:33.183Z,15.90
2023-01-23T06:35:02.337Z,16.05
2023-01-23T06:37:31.470Z,17.23
2023-01-23T06:39:59.235Z,18.45
2023-01-23T06:42:26.934Z,14.80
2023-01-23T06:44:54.605Z,15.32
2023-01-23T06:47:23.199Z,15.90
2023-01-23T06:49:50.908Z,14.48
2023-01-23T06:52:18.618Z,14.80
2023-01-23T06:54:47.768Z,16.73
2023-01-23T06:57:15.548Z,12.98
2023-01-23T06:59:43.191Z,14.32
2023-01-23T07:02:11.812Z,15.80
2023-01-23T07:04:39.942Z,15.40
2023-01-23T07:07:08.149Z,15.38
2023-01-23T07:09:35.992Z,12.85
2023-01-23T07:12:05.771Z,15.02
2023-01-23T07:14:33.511Z,14.43
2023-01-23T07:17:01.202Z,15.77
2023-01-23T07:19:29.063Z,15.45
2023-01-23T07:21:56.761Z,15.38
2023-01-23T07:24:24.380Z,17.17
2023-01-23T07:26:52.133Z,15.73
2023-01-23T07:29:21.208Z,13.68
2023-01-23T07:31:48.924Z,16.25
2023-01-23T07:34:16.796Z,15.20
2023-01-23T07:36:44.443Z,15.90
2023-01-23T07:39:12.267Z,16.88
2023-01-23T07:41:41.528Z,16.60
2023-01-23T07:44:19.279Z,15.00
2023-01-23T07:46:50.102Z,16.10
2023-01-23T07:49:17.869Z,17.05
2023-01-23T07:51:45.628Z,17.30
2023-01-23T07:54:13.463Z,15.65
2023-01-23T07:56:41.238Z,15.85
2023-01-23T07:59:09.075Z,15.93
2023-01-23T08:01:36.878Z,15.27
2023-01-23T08:04:06.163Z,16.20
2023-01-23T08:06:34.703Z,17.20
2023-01-23T08:09:02.430Z,14.93
2023-01-23T08:11:30.830Z,18.00
2023-01-23T08:13:59.542Z,17.23
2023-01-23T08:16:27.806Z,16.10
2023-01-23T08:18:55.547Z,14.70
2023-01-23T08:21:24.913Z,15.00
2023-01-23T08:23:52.599Z,15.10
2023-01-23T08:26:20.269Z,16.42
2023-01-23T08:28:47.955Z,15.13
2023-01-23T08:31:16.870Z,17.35
2023-01-23T08:33:44.647Z,17.13
2023-01-23T08:36:14.137Z,15.52
2023-01-23T08:38:43.548Z,15.18
2023-01-23T08:41:12.569Z,16.48
2023-01-23T08:43:41.724Z,16.10
2023-01-23T08:46:11.944Z,15.73
2023-01-23T08:48:39.874Z,15.95
2023-01-23T08:51:09.662Z,16.25
2023-01-23T08:53:37.926Z,16.90
2023-01-23T08:56:10.242Z,16.15
2023-01-23T08:58:37.883Z,15.10
2023-01-23T09:01:05.994Z,16.15
2023-01-23T09:03:33.816Z,13.07
2023-01-23T09:06:02.286Z,14.63
2023-01-23T09:08:30.064Z,14.27
2023-01-23T09:11:01.570Z,15.05
2023-01-23T09:13:31.449Z,13.65
2023-01-23T09:15:59.332Z,13.40
2023-01-23T09:18:27.345Z,15.10
2023-01-23T09:20:56.104Z,13.85
2023-01-23T09:23:24.523Z,13.30
2023-01-23T09:25:52.617Z,13.55
2023-01-23T09:28:20.342Z,14.07
2023-01-23T09:30:49.495Z,12.35
2023-01-23T09:33:18.112Z,12.25
2023-01-23T09:35:46.321Z,12.48
2023-01-23T09:38:14.182Z,11.68
2023-01-23T09:40:51.096Z,10.95
2023-01-23T09:43:28.319Z,12.93
2023-01-23T09:46:05.678Z,13.40
2023-01-23T09:48:43.751Z,12.82
2023-01-23T09:51:18.254Z,13.07
2023-01-23T09:53:46.334Z,12.75
2023-01-23T09:56:23.354Z,10.82
2023-01-23T09:59:00.493Z,12.25
2023-01-23T10:01:32.762Z,12.30
2023-01-23T10:04:02.215Z,11.25
2023-01-23T10:06:32.242Z,11.27
2023-01-23T10:09:27.018Z,10.90
2023-01-23T10:12:03.025Z,12.40
2023-01-23T10:15:02.065Z,12.48
2023-01-23T10:17:42.694Z,13.23
2023-01-23T10:20:36.981Z,11.10
2023-01-23T10:23:14.025Z,11.73
2023-01-23T10:25:42.858Z,12.32
2023-01-23T10:28:22.105Z,10.65
2023-01-23T10:30:56.338Z,10.68
2023-01-23T10:33:35.005Z,10.88
2023-01-23T10:36:07.067Z,11.48
2023-01-23T10:38:46.253Z,11.52
2023-01-23T10:41:21.184Z,11.52
2023-01-23T10:43:52.671Z,11.65
2023-01-23T10:46:22.705Z,12.77
2023-01-23T10:48:54.153Z,11.88
2023-01-23T10:51:44.669Z,10.75
2023-01-23T10:54:31.422Z,13.30
2023-01-23T10:57:01.711Z,12.60
2023-01-23T10:59:33.996Z,13.77
2023-01-23T11:02:18.625Z,11.95
2023-01-23T11:04:49.369Z,12.45
2023-01-23T11:07:19.144Z,10.88
2023-01-23T11:09:53.899Z,11.15
2023-01-23T11:12:24.201Z,10.93
2023-01-23T11:14:52.630Z,12.15
2023-01-23T11:17:23.746Z,11.88
2023-01-23T11:19:54.630Z,11.70
2023-01-23T11:22:29.824Z,11.65
2023-01-23T11:24:57.639Z,12.80
2023-01-23T11:27:28.309Z,10.85
2023-01-23T11:30:35.952Z,11.95
2023-01-23T11:33:13.559Z,12.25
2023-01-23T11:35:54.841Z,11.85
2023-01-23T11:38:31.264Z,11.30
2023-01-23T11:40:59.191Z,13.77
2023-01-23T11:43:27.052Z,11.65
2023-01-23T11:46:12.550Z,11.25
2023-01-23T11:48:55.898Z,11.20
2023-01-23T11:51:33.911Z,13.80
2023-01-23T11:54:17.604Z,13.20
2023-01-23T11:57:02.396Z,14.32
2023-01-23T12:00:00.328Z,12.88
2023-01-23T12:02:54.611Z,13.38
2023-01-23T12:06:13.855Z,12.75
2023-01-23T12:08:55.952Z,14.07
2023-01-23T12:11:25.483Z,13.65
2023-01-23T12:14:11.551Z,13.60
2023-01-23T12:17:08.889Z,14.60
2023-01-23T12:19:51.471Z,13.75
2023-01-23T12:22:29.004Z,13.60
2023-01-23T12:25:13.318Z,12.98
2023-01-23T12:27:45.794Z,12.05
2023-01-23T12:30:38.939Z,13.50
2023-01-23T12:33:24.466Z,13.02
2023-01-23T12:36:08.125Z,12.23
2023-01-23T12:38:47.970Z,13.32
2023-01-23T12:41:28.753Z,12.23
2023-01-23T12:44:02.743Z,12.70
2023-01-23T12:46:36.616Z,12.85
2023-01-23T12:49:15.510Z,12.90
2023-01-23T12:51:48.695Z,11.73
2023-01-23T12:54:25.973Z,11.57
2023-01-23T12:56:56.241Z,12.70
2023-01-23T12:59:34.708Z,12.85
2023-01-23T13:02:11.214Z,12.85
2023-01-23T13:04:55.682Z,13.60
2023-01-23T13:07:37.767Z,13.63
2023-01-23T13:10:25.138Z,12.40
2023-01-23T13:12:57.879Z,11.55
2023-01-23T13:15:40.722Z,10.88
2023-01-23T13:18:23.531Z,12.65
2023-01-23T13:21:16.153Z,12.48
2023-01-23T13:23:44.077Z,9.93
2023-01-23T13:26:29.148Z,11.40
2023-01-23T13:29:02.255Z,11.70
2023-01-23T13:31:46.546Z,12.40
2023-01-23T13:34:41.570Z,11.52
2023-01-23T13:37:51.031Z,11.88
2023-01-23T13:40:23.638Z,12.10
2023-01-23T13:42:51.694Z,11.18
2023-01-23T13:45:33.544Z,12.68
2023-01-23T14:23:29.846Z,9.80
2023-01-23T14:25:58.300Z,9.68
2023-01-23T14:28:27.415Z,12.45
2023-01-23T14:30:57.227Z,10.88
2023-01-23T14:33:25.898Z,11.20
2023-01-23T14:35:55.214Z,11.57
2023-01-23T14:38:34.459Z,10.30
2023-01-23T14:41:07.012Z,11.10
2023-01-23T14:43:37.099Z,11.52
2023-01-23T14:46:07.438Z,11.35
2023-01-23T14:48:38.921Z,10.55
2023-01-23T14:51:10.560Z,11.55
2023-01-23T14:53:43.252Z,10.77
2023-01-23T14:56:12.992Z,10.80
2023-01-23T14:58:41.098Z,10.55
2023-01-23T15:01:09.206Z,11.55
2023-01-23T15:03:39.469Z,12.38
2023-01-23T15:06:16.637Z,10.90
2023-01-23T15:08:46.443Z,11.40
2023-01-23T15:11:14.429Z,11.82
2023-01-23T15:13:46.741Z,11.82
2023-01-23T15:16:19.979Z,11.13
2023-01-23T15:18:54.528Z,12.25
2023-01-23T15:21:31.474Z,11.27
2023-01-23T15:24:26.441Z,12.10
2023-01-23T15:27:04.478Z,12.65
2023-01-23T15:29:33.691Z,11.95
2023-01-23T15:32:02.757Z,11.73
2023-01-23T15:34:33.701Z,12.85
2023-01-23T15:37:08.467Z,12.82
2023-01-23T15:39:40.551Z,12.20
2023-01-23T15:42:27.800Z,13.25
2023-01-23T15:44:55.721Z,12.60
2023-01-23T15:47:23.407Z,12.15
2023-01-23T15:49:51.371Z,12.60
2023-01-23T15:52:22.402Z,11.85
2023-01-23T15:54:55.055Z,11.57
2023-01-23T15:57:23.062Z,12.30
2023-01-23T15:59:51.002Z,12.43
2023-01-23T16:02:39.358Z,13.20
2023-01-23T16:05:08.818Z,12.40
2023-01-23T16:07:39.082Z,13.75
2023-01-23T16:10:18.895Z,12.52
2023-01-23T16:12:48.910Z,13.27
2023-01-23T16:15:18.264Z,12.68
2023-01-23T16:17:46.584Z,14.35
2023-01-23T16:20:15.792Z,16.27
2023-01-23T16:22:44.241Z,13.80
2023-01-23T16:25:43.610Z,14.38
2023-01-23T16:28:13.841Z,14.50
2023-01-23T16:30:41.520Z,14.18
2023-01-23T16:33:09.443Z,14.32
2023-01-23T16:35:37.507Z,13.77
2023-01-23T16:38:06.332Z,16.27
2023-01-23T16:40:35.776Z,13.20
2023-01-23T16:43:03.797Z,14.52
2023-01-23T16:45:33.037Z,13.63
2023-01-23T16:48:15.410Z,12.85
2023-01-23T16:50:53.239Z,13.75
2023-01-23T16:53:25.193Z,12.95
2023-01-23T16:55:55.312Z,14.13
2023-01-23T16:58:26.266Z,15.18
2023-01-23T17:00:57.717Z,12.63
2023-01-23T17:03:30.406Z,13.07
2023-01-23T17:05:58.148Z,15.10
2023-01-23T17:08:26.757Z,14.45
2023-01-23T17:11:03.448Z,15.52
2023-01-23T17:13:33.804Z,14.55
2023-01-23T17:16:15.451Z,15.98
2023-01-23T17:18:49.790Z,13.45
2023-01-23T17:21:21.895Z,12.65
2023-01-23T17:23:49.621Z,12.75
2023-01-23T17:26:20.851Z,13.50
2023-01-23T17:28:49.220Z,13.55
2023-01-23T17:31:21.666Z,14.60
2023-01-23T17:33:50.240Z,12.52
2023-01-23T17:36:18.817Z,13.10
2023-01-23T17:38:46.657Z,14.85
2023-01-23T17:41:15.087Z,15.57
2023-01-23T17:43:44.910Z,13.40
2023-01-23T17:46:23.791Z,13.25
2023-01-23T17:48:51.679Z,13.93
2023-01-23T17:51:20.827Z,13.80
2023-01-23T17:53:48.901Z,14.45
2023-01-23T17:56:17.189Z,13.63
2023-01-23T17:58:46.387Z,14.10
2023-01-23T18:01:23.336Z,15.10
2023-01-23T18:03:51.993Z,15.10
2023-01-23T18:06:20.234Z,14.70
2023-01-23T18:08:48.201Z,15.23
2023-01-23T18:11:19.796Z,15.32
2023-01-23T18:14:01.983Z,13.95
2023-01-23T18:16:37.266Z,13.18
2023-01-23T18:19:16.145Z,13.80
2023-01-23T18:21:44.559Z,15.07
2023-01-23T18:24:23.261Z,15.35
2023-01-23T18:26:57.882Z,15.02
2023-01-23T18:29:35.291Z,15.55
2023-01-23T18:32:23.977Z,14.18
2023-01-23T18:34:56.380Z,14.68
2023-01-23T18:37:32.834Z,14.18
2023-01-23T18:40:05.389Z,15.88
2023-01-23T18:42:38.698Z,13.25
2023-01-23T18:45:12.496Z,14.50
2023-01-23T18:47:41.296Z,13.40
2023-01-23T18:50:17.282Z,14.00
2023-01-23T18:52:52.166Z,14.07
2023-01-23T18:55:28.684Z,13.40
2023-01-23T18:58:15.947Z,14.18
2023-01-23T19:00:50.571Z,12.73
2023-01-23T19:03:19.705Z,12.68
2023-01-23T19:05:47.811Z,13.88
2023-01-23T19:08:28.173Z,13.63
2023-01-23T19:11:00.789Z,14.68
2023-01-23T19:13:36.181Z,12.90
2023-01-23T19:16:12.033Z,13.25
2023-01-23T19:18:46.848Z,12.65
2023-01-23T19:21:17.961Z,13.10
2023-01-23T19:23:51.655Z,12.93
2023-01-23T19:26:20.176Z,13.50
2023-01-23T19:28:48.508Z,14.40
2023-01-23T19:31:22.459Z,12.52
2023-01-23T19:33:50.379Z,14.32
2023-01-23T19:36:22.019Z,13.40
2023-01-23T19:38:50.412Z,12.88
2023-01-23T19:41:21.307Z,15.35
2023-01-23T19:43:50.473Z,14.05
2023-01-23T19:46:20.098Z,12.30
2023-01-23T19:48:47.996Z,14.90
2023-01-23T19:51:18.504Z,13.68
2023-01-23T19:53:47.137Z,14.70
2023-01-23T19:56:17.830Z,14.10
2023-01-23T19:58:46.061Z,16.08
2023-01-23T20:01:24.601Z,14.45
2023-01-23T20:03:52.944Z,15.35
2023-01-23T20:06:20.809Z,13.98
2023-01-23T20:08:48.529Z,14.05
2023-01-23T20:11:16.660Z,12.98
2023-01-23T20:13:45.306Z,13.25
2023-01-23T20:16:18.494Z,16.50
2023-01-23T20:18:48.811Z,13.57
2023-01-23T20:21:17.884Z,15.15
2023-01-23T20:23:46.587Z,15.98
2023-01-23T20:26:17.365Z,16.05
2023-01-23T20:28:48.268Z,13.32
2023-01-23T20:31:16.757Z,13.15
2023-01-23T20:33:44.530Z,13.30
2023-01-23T20:36:15.896Z,13.93
2023-01-23T20:38:44.682Z,12.55
2023-01-23T20:41:14.259Z,12.75
2023-01-23T20:43:42.871Z,14.10
2023-01-23T20:46:10.822Z,13.43
2023-01-23T20:48:39.917Z,13.52
2023-01-23T20:51:09.821Z,13.60
2023-01-23T20:53:39.869Z,13.77
2023-01-23T20:56:09.441Z,13.63
2023-01-23T20:58:56.335Z,14.30
2023-01-23T21:01:26.346Z,14.93
2023-01-23T21:03:54.235Z,14.27
2023-01-23T21:06:22.455Z,15.63
2023-01-23T21:08:51.519Z,14.23
2023-01-23T21:11:20.809Z,13.68
2023-01-23T21:13:52.058Z,14.50
2023-01-23T21:16:20.755Z,16.42
2023-01-23T21:18:48.702Z,16.05
2023-01-23T21:21:18.581Z,17.40
2023-01-23T21:23:48.992Z,15.63
2023-01-23T21:26:20.576Z,14.77
2023-01-23T21:28:49.403Z,15.77
2023-01-23T21:31:19.490Z,14.85
2023-01-23T21:33:47.871Z,14.40
2023-01-23T21:36:18.103Z,15.98
2023-01-23T21:38:46.456Z,15.77
2023-01-23T21:41:14.417Z,16.10
2023-01-23T21:43:43.514Z,16.77
2023-01-23T21:46:11.386Z,15.57
2023-01-23T21:48:39.313Z,15.95
2023-01-23T21:51:09.056Z,16.60
2023-01-23T21:53:37.361Z,14.88
2023-01-23T21:56:06.308Z,18.02
2023-01-23T21:58:34.507Z,16.08
2023-01-23T22:01:23.562Z,15.45
2023-01-23T22:03:51.585Z,16.27
2023-01-23T22:06:19.569Z,14.73
2023-01-23T22:08:47.362Z,14.05
2023-01-23T22:11:16.325Z,14.90
2023-01-23T22:13:47.029Z,15.25
2023-01-23T22:16:16.184Z,15.80
2023-01-23T22:18:44.000Z,16.00
2023-01-23T22:21:12.218Z,16.42
2023-01-23T22:23:40.124Z,17.02
2023-01-23T22:26:09.710Z,14.55
2023-01-23T22:28:38.038Z,14.52
2023-01-23T22:31:08.651Z,15.23
2023-01-23T22:33:40.853Z,15.32
2023-01-23T22:36:12.091Z,16.52
2023-01-23T22:38:39.847Z,15.75
2023-01-23T22:41:08.429Z,15.90
2023-01-23T22:43:36.140Z,14.40
2023-01-23T22:46:08.880Z,16.92
2023-01-23T22:48:40.394Z,14.90
2023-01-23T22:51:14.069Z,14.40
2023-01-23T22:53:42.155Z,14.10
2023-01-23T22:56:10.452Z,15.13
2023-01-23T22:58:39.001Z,14.27
2023-01-23T23:01:07.481Z,14.20
2023-01-23T23:03:36.050Z,13.52
2023-01-23T23:06:07.495Z,14.80
2023-01-23T23:08:36.049Z,15.60
2023-01-23T23:11:05.214Z,14.68
2023-01-23T23:13:35.311Z,14.32
2023-01-23T23:16:04.814Z,14.68
2023-01-23T23:18:33.146Z,14.60
2023-01-23T23:21:01.945Z,15.25
2023-01-23T23:23:31.034Z,14.68
2023-01-23T23:25:59.201Z,13.30
2023-01-23T23:28:28.311Z,15.30
2023-01-23T23:30:55.990Z,14.93
2023-01-23T23:33:24.086Z,14.80
2023-01-23T23:35:51.785Z,13.73
2023-01-23T23:38:20.178Z,14.40
2023-01-23T23:40:56.696Z,15.55
2023-01-23T23:43:29.249Z,14.95
2023-01-23T23:45:58.800Z,15.25
2023-01-23T23:48:27.558Z,16.13
2023-01-23T23:50:55.290Z,15.52
2023-01-23T23:53:23.525Z,15.38
2023-01-23T23:55:51.262Z,15.82
2023-01-23T23:58:20.331Z,17.02
